LIVE FLIGHTS

CallsignPilotDepartureArrivalFlight stageAircraft type% CompletedPending NM

 WELCOME TO BirgenAir Virtual Airlines

 STATISTICS

Pilots 28
Aircraft in fleet 0
Routes 0
Total hours: 4897:13
Flights total 4990
Flights Regular 127
Flights Charter 4863
% Flights Regular 2.55 %

 IVAO

 Active Runways & Weather of LTBA

Kalkış Pisti

35R-L

İniş Pisti

05

LTBA 221350Z 23005KT 200V270 CAVOK 14/03 Q1023 NOSIG

 LATEST FLIGHTS

CallsignPilotDepartureArrivalDateFlight Time
BGN003Bülent ÇAĞLAR  LGAV  LTAC 2019-04-22 01:09
BGN369Kaan Can  LTBH  LDDU 2019-04-21 01:37
BGN007Ahmethan Fat  LTAI  HECA 2019-04-21 01:00
BGN262Can Uyanık  LTAI  HECA 2019-04-21 00:55
BGN557Semih İspiroğlu  LTCG  LTFJ 2019-04-20 01:27

 NEWEST PILOTS

 FUTURE EVENTS

EventDate

  Facebook

 TOP 5 PILOTS BY FLIGHTS

CallsignPilotFlights
BGN003Bülent ÇAĞLAR601
BGN001Umut Keskin498
BGN974Turgut Uyanık278
BGN005Ceyhun Özbesler257
BGN002Murat Türkarslan257

 News

TitleDate



Copyright © 2011 - 2018 BirgenAir Virtual Airlines. All rights reserved. Developed by Goktug Unver